sensor_id;sensor_type;location;lat;lon;timestamp;pressure;altitude;pressure_sealevel;temperature;humidity
3096;BME280;1558;42.700;23.360;2022-09-06T00:01:27;95963.50;;;15.97;100.00
3096;BME280;1558;42.700;23.360;2022-09-06T00:03:55;95971.91;;;15.92;100.00
3096;BME280;1558;42.700;23.360;2022-09-06T00:06:23;95956.31;;;15.77;100.00
3096;BME280;1558;42.700;23.360;2022-09-06T00:08:51;95955.19;;;15.78;100.00
3096;BME280;1558;42.700;23.360;2022-09-06T00:11:19;95968.75;;;15.90;100.00
3096;BME280;1558;42.700;23.360;2022-09-06T00:13:47;95953.59;;;15.77;100.00
3096;BME280;1558;42.700;23.360;2022-09-06T00:16:18;95970.91;;;15.84;100.00
3096;BME280;1558;42.700;23.360;2022-09-06T00:18:46;95969.44;;;15.87;100.00
3096;BME280;1558;42.700;23.360;2022-09-06T00:21:17;95977.59;;;15.87;100.00
3096;BME280;1558;42.700;23.360;2022-09-06T00:23:46;95971.72;;;15.85;100.00
3096;BME280;1558;42.700;23.360;2022-09-06T00:26:14;95979.00;;;15.81;100.00
3096;BME280;1558;42.700;23.360;2022-09-06T00:28:42;95954.28;;;15.74;100.00
3096;BME280;1558;42.700;23.360;2022-09-06T00:31:12;95936.03;;;15.58;100.00
3096;BME280;1558;42.700;23.360;2022-09-06T00:33:41;95965.09;;;15.70;100.00
3096;BME280;1558;42.700;23.360;2022-09-06T00:36:10;95952.53;;;15.66;100.00
3096;BME280;1558;42.700;23.360;2022-09-06T00:38:39;95965.88;;;15.71;100.00
3096;BME280;1558;42.700;23.360;2022-09-06T00:41:10;95964.97;;;15.67;100.00
3096;BME280;1558;42.700;23.360;2022-09-06T00:43:38;95968.22;;;15.56;100.00
3096;BME280;1558;42.700;23.360;2022-09-06T00:46:08;95966.88;;;15.50;100.00
3096;BME280;1558;42.700;23.360;2022-09-06T00:48:38;95828.69;;;14.57;100.00
3096;BME280;1558;42.700;23.360;2022-09-06T00:51:10;95907.06;;;15.11;100.00
3096;BME280;1558;42.700;23.360;2022-09-06T00:53:39;95960.69;;;15.38;100.00
3096;BME280;1558;42.700;23.360;2022-09-06T00:56:08;95964.41;;;15.33;100.00
3096;BME280;1558;42.700;23.360;2022-09-06T00:58:36;95968.59;;;15.31;100.00
3096;BME280;1558;42.700;23.360;2022-09-06T01:01:05;95967.38;;;15.28;100.00
3096;BME280;1558;42.700;23.360;2022-09-06T01:03:34;95962.72;;;15.29;100.00
3096;BME280;1558;42.700;23.360;2022-09-06T01:06:16;95963.88;;;15.28;100.00
3096;BME280;1558;42.700;23.360;2022-09-06T01:09:03;95966.91;;;15.26;100.00
3096;BME280;1558;42.700;23.360;2022-09-06T01:11:47;95968.88;;;15.26;100.00
3096;BME280;1558;42.700;23.360;2022-09-06T01:14:26;95980.97;;;15.28;100.00
3096;BME280;1558;42.700;23.360;2022-09-06T01:17:02;95974.63;;;15.24;100.00
3096;BME280;1558;42.700;23.360;2022-09-06T01:22:55;95964.91;;;15.23;100.00
3096;BME280;1558;42.700;23.360;2022-09-06T01:25:34;95961.03;;;15.24;100.00
3096;BME280;1558;42.700;23.360;2022-09-06T01:28:26;95961.75;;;15.21;100.00
3096;BME280;1558;42.700;23.360;2022-09-06T01:31:03;95964.91;;;15.23;100.00
3096;BME280;1558;42.700;23.360;2022-09-06T01:33:39;95964.91;;;15.23;100.00
3096;BME280;1558;42.700;23.360;2022-09-06T01:36:12;95968.75;;;15.22;100.00
3096;BME280;1558;42.700;23.360;2022-09-06T01:38:41;95961.28;;;15.19;100.00
3096;BME280;1558;42.700;23.360;2022-09-06T01:41:10;95959.72;;;15.18;100.00
3096;BME280;1558;42.700;23.360;2022-09-06T01:43:42;95959.72;;;15.18;100.00
3096;BME280;1558;42.700;23.360;2022-09-06T01:46:18;95951.19;;;15.20;100.00
3096;BME280;1558;42.700;23.360;2022-09-06T01:48:59;95948.41;;;15.16;100.00
3096;BME280;1558;42.700;23.360;2022-09-06T01:51:32;95951.78;;;15.13;100.00
3096;BME280;1558;42.700;23.360;2022-09-06T01:54:18;95920.25;;;14.97;100.00
3096;BME280;1558;42.700;23.360;2022-09-06T01:56:57;95928.03;;;15.10;100.00
3096;BME280;1558;42.700;23.360;2022-09-06T01:59:41;95909.75;;;14.95;100.00
3096;BME280;1558;42.700;23.360;2022-09-06T02:02:16;95929.72;;;15.03;100.00
3096;BME280;1558;42.700;23.360;2022-09-06T02:04:51;95935.53;;;15.01;100.00
3096;BME280;1558;42.700;23.360;2022-09-06T02:07:21;95900.94;;;14.74;100.00
3096;BME280;1558;42.700;23.360;2022-09-06T02:09:52;95843.44;;;14.44;100.00
3096;BME280;1558;42.700;23.360;2022-09-06T02:12:23;95935.75;;;14.96;100.00
3096;BME280;1558;42.700;23.360;2022-09-06T02:14:56;95930.03;;;14.85;100.00
3096;BME280;1558;42.700;23.360;2022-09-06T02:17:28;95926.06;;;14.83;100.00
3096;BME280;1558;42.700;23.360;2022-09-06T02:19:59;95916.78;;;14.72;100.00
3096;BME280;1558;42.700;23.360;2022-09-06T02:22:30;95934.75;;;14.88;100.00
3096;BME280;1558;42.700;23.360;2022-09-06T02:25:00;95927.41;;;14.89;100.00
3096;BME280;1558;42.700;23.360;2022-09-06T02:27:29;95933.50;;;14.86;100.00
3096;BME280;1558;42.700;23.360;2022-09-06T02:29:59;95939.28;;;14.84;100.00
3096;BME280;1558;42.700;23.360;2022-09-06T02:32:29;95924.94;;;14.72;100.00
3096;BME280;1558;42.700;23.360;2022-09-06T02:35:06;95940.09;;;14.85;100.00
3096;BME280;1558;42.700;23.360;2022-09-06T02:37:35;95941.88;;;14.93;100.00
3096;BME280;1558;42.700;23.360;2022-09-06T02:40:03;95868.44;;;14.50;100.00
3096;BME280;1558;42.700;23.360;2022-09-06T02:42:32;95945.91;;;15.11;100.00
3096;BME280;1558;42.700;23.360;2022-09-06T02:45:01;95938.69;;;15.31;100.00
3096;BME280;1558;42.700;23.360;2022-09-06T02:47:30;95937.16;;;15.57;100.00
3096;BME280;1558;42.700;23.360;2022-09-06T02:49:58;95949.44;;;15.51;100.00
3096;BME280;1558;42.700;23.360;2022-09-06T02:52:26;95951.75;;;15.65;100.00
3096;BME280;1558;42.700;23.360;2022-09-06T02:54:54;95952.13;;;15.79;100.00
3096;BME280;1558;42.700;23.360;2022-09-06T02:57:22;95957.84;;;15.90;100.00
3096;BME280;1558;42.700;23.360;2022-09-06T02:59:50;95951.44;;;15.82;100.00
3096;BME280;1558;42.700;23.360;2022-09-06T03:02:19;95938.00;;;15.46;100.00
3096;BME280;1558;42.700;23.360;2022-09-06T03:04:47;95941.16;;;15.48;100.00
3096;BME280;1558;42.700;23.360;2022-09-06T03:07:15;95934.25;;;15.38;100.00
3096;BME280;1558;42.700;23.360;2022-09-06T03:09:43;95940.47;;;15.51;100.00
3096;BME280;1558;42.700;23.360;2022-09-06T03:12:11;95941.78;;;15.29;100.00
3096;BME280;1558;42.700;23.360;2022-09-06T03:14:39;95939.91;;;15.06;100.00
3096;BME280;1558;42.700;23.360;2022-09-06T03:17:07;95943.22;;;14.99;100.00
3096;BME280;1558;42.700;23.360;2022-09-06T03:19:36;95938.72;;;14.91;100.00
3096;BME280;1558;42.700;23.360;2022-09-06T03:22:04;95942.91;;;14.88;100.00
3096;BME280;1558;42.700;23.360;2022-09-06T03:24:32;95924.03;;;14.68;100.00
3096;BME280;1558;42.700;23.360;2022-09-06T03:27:00;95951.06;;;14.64;100.00
3096;BME280;1558;42.700;23.360;2022-09-06T03:29:28;95950.31;;;14.52;100.00
3096;BME280;1558;42.700;23.360;2022-09-06T03:31:56;95948.84;;;14.42;100.00
3096;BME280;1558;42.700;23.360;2022-09-06T03:34:24;95941.22;;;14.23;100.00
3096;BME280;1558;42.700;23.360;2022-09-06T03:36:53;95942.81;;;14.24;100.00
3096;BME280;1558;42.700;23.360;2022-09-06T03:39:21;95973.34;;;14.34;100.00
3096;BME280;1558;42.700;23.360;2022-09-06T03:41:49;95962.50;;;14.34;100.00
3096;BME280;1558;42.700;23.360;2022-09-06T03:44:17;95964.44;;;14.33;100.00
3096;BME280;1558;42.700;23.360;2022-09-06T03:46:45;95968.50;;;14.51;100.00
3096;BME280;1558;42.700;23.360;2022-09-06T03:49:13;95964.69;;;14.52;100.00
3096;BME280;1558;42.700;23.360;2022-09-06T03:51:41;95965.94;;;14.43;100.00
3096;BME280;1558;42.700;23.360;2022-09-06T03:54:10;95970.19;;;14.32;100.00
3096;BME280;1558;42.700;23.360;2022-09-06T03:56:38;95979.88;;;14.20;100.00
3096;BME280;1558;42.700;23.360;2022-09-06T03:59:06;95962.72;;;14.16;100.00
3096;BME280;1558;42.700;23.360;2022-09-06T04:01:34;95972.63;;;14.12;100.00
3096;BME280;1558;42.700;23.360;2022-09-06T04:04:02;95951.84;;;14.04;100.00
3096;BME280;1558;42.700;23.360;2022-09-06T04:06:30;95971.13;;;14.36;100.00
3096;BME280;1558;42.700;23.360;2022-09-06T04:08:58;95974.69;;;15.00;100.00
3096;BME280;1558;42.700;23.360;2022-09-06T04:11:27;95967.78;;;15.54;100.00
3096;BME280;1558;42.700;23.360;2022-09-06T04:13:55;95970.72;;;15.77;100.00
3096;BME280;1558;42.700;23.360;2022-09-06T04:16:23;95969.19;;;15.92;100.00
3096;BME280;1558;42.700;23.360;2022-09-06T04:18:51;95975.06;;;15.94;100.00
3096;BME280;1558;42.700;23.360;2022-09-06T04:21:19;95920.44;;;15.71;100.00
3096;BME280;1558;42.700;23.360;2022-09-06T04:23:47;95968.59;;;16.14;100.00
3096;BME280;1558;42.700;23.360;2022-09-06T04:26:15;95966.53;;;15.95;100.00
3096;BME280;1558;42.700;23.360;2022-09-06T04:28:44;95966.16;;;15.81;100.00
3096;BME280;1558;42.700;23.360;2022-09-06T04:31:12;95973.28;;;15.86;100.00
3096;BME280;1558;42.700;23.360;2022-09-06T04:33:40;95952.16;;;16.10;100.00
3096;BME280;1558;42.700;23.360;2022-09-06T04:36:09;95978.63;;;16.41;100.00
3096;BME280;1558;42.700;23.360;2022-09-06T04:38:39;95975.25;;;16.48;100.00
3096;BME280;1558;42.700;23.360;2022-09-06T04:41:08;95969.31;;;16.73;100.00
3096;BME280;1558;42.700;23.360;2022-09-06T04:43:36;95970.88;;;17.09;100.00
3096;BME280;1558;42.700;23.360;2022-09-06T04:46:10;95906.66;;;16.92;100.00
3096;BME280;1558;42.700;23.360;2022-09-06T04:48:42;95969.69;;;17.61;100.00
3096;BME280;1558;42.700;23.360;2022-09-06T04:51:10;95973.91;;;17.77;100.00
3096;BME280;1558;42.700;23.360;2022-09-06T04:53:37;95970.34;;;17.73;100.00
3096;BME280;1558;42.700;23.360;2022-09-06T04:56:05;95965.34;;;17.79;100.00
3096;BME280;1558;42.700;23.360;2022-09-06T04:58:33;95969.56;;;17.95;100.00
3096;BME280;1558;42.700;23.360;2022-09-06T05:01:01;95970.22;;;18.31;100.00
3096;BME280;1558;42.700;23.360;2022-09-06T05:03:31;95917.84;;;18.25;100.00
3096;BME280;1558;42.700;23.360;2022-09-06T05:06:06;95956.16;;;18.51;100.00
3096;BME280;1558;42.700;23.360;2022-09-06T05:08:36;95958.50;;;18.75;99.32
3096;BME280;1558;42.700;23.360;2022-09-06T05:11:05;95965.44;;;18.69;97.85
3096;BME280;1558;42.700;23.360;2022-09-06T05:13:33;95966.03;;;18.59;96.08
3096;BME280;1558;42.700;23.360;2022-09-06T05:16:02;95967.16;;;18.81;98.07
3096;BME280;1558;42.700;23.360;2022-09-06T05:18:32;95960.16;;;19.10;94.70
3096;BME280;1558;42.700;23.360;2022-09-06T05:21:00;95962.00;;;19.02;93.51
3096;BME280;1558;42.700;23.360;2022-09-06T05:23:28;95963.06;;;19.20;92.97
3096;BME280;1558;42.700;23.360;2022-09-06T05:25:56;95955.59;;;19.43;90.94
3096;BME280;1558;42.700;23.360;2022-09-06T05:28:24;95948.50;;;19.39;89.32
3096;BME280;1558;42.700;23.360;2022-09-06T05:30:52;95956.09;;;19.26;90.45
3096;BME280;1558;42.700;23.360;2022-09-06T05:33:21;95956.72;;;19.42;90.75
3096;BME280;1558;42.700;23.360;2022-09-06T05:35:50;95943.06;;;19.42;88.75
3096;BME280;1558;42.700;23.360;2022-09-06T05:38:18;95970.97;;;19.85;88.31
3096;BME280;1558;42.700;23.360;2022-09-06T05:40:46;95965.00;;;20.16;86.17
3096;BME280;1558;42.700;23.360;2022-09-06T05:43:14;95968.34;;;20.32;85.62
3096;BME280;1558;42.700;23.360;2022-09-06T05:45:42;95919.50;;;20.45;82.60
3096;BME280;1558;42.700;23.360;2022-09-06T05:48:10;95964.78;;;20.75;82.20
3096;BME280;1558;42.700;23.360;2022-09-06T05:50:38;95964.44;;;20.80;79.92
3096;BME280;1558;42.700;23.360;2022-09-06T05:53:08;95970.16;;;20.61;81.12
3096;BME280;1558;42.700;23.360;2022-09-06T05:55:36;95945.38;;;20.47;81.62
3096;BME280;1558;42.700;23.360;2022-09-06T05:58:08;95967.44;;;21.16;81.05
3096;BME280;1558;42.700;23.360;2022-09-06T06:00:36;95942.91;;;20.82;79.01
3096;BME280;1558;42.700;23.360;2022-09-06T06:03:04;95958.78;;;21.07;81.72
3096;BME280;1558;42.700;23.360;2022-09-06T06:05:32;95942.66;;;21.70;78.10
3096;BME280;1558;42.700;23.360;2022-09-06T06:08:00;95951.25;;;21.65;76.27
3096;BME280;1558;42.700;23.360;2022-09-06T06:10:30;95948.03;;;21.49;76.52
3096;BME280;1558;42.700;23.360;2022-09-06T06:13:03;95949.97;;;21.41;76.71
3096;BME280;1558;42.700;23.360;2022-09-06T06:15:31;95950.41;;;21.50;76.23
3096;BME280;1558;42.700;23.360;2022-09-06T06:17:59;95922.38;;;22.13;74.46
3096;BME280;1558;42.700;23.360;2022-09-06T06:20:27;95938.72;;;21.71;73.98
3096;BME280;1558;42.700;23.360;2022-09-06T06:22:55;95936.25;;;21.41;75.24
3096;BME280;1558;42.700;23.360;2022-09-06T06:25:23;95931.50;;;21.35;76.00
3096;BME280;1558;42.700;23.360;2022-09-06T06:27:53;95935.03;;;21.32;76.61
3096;BME280;1558;42.700;23.360;2022-09-06T06:30:21;95795.66;;;20.97;75.52
3096;BME280;1558;42.700;23.360;2022-09-06T06:32:49;95945.19;;;22.42;73.17
3096;BME280;1558;42.700;23.360;2022-09-06T06:35:16;95938.94;;;22.56;72.20
3096;BME280;1558;42.700;23.360;2022-09-06T06:37:44;95888.63;;;22.59;70.70
3096;BME280;1558;42.700;23.360;2022-09-06T06:40:12;95942.47;;;22.60;70.88
3096;BME280;1558;42.700;23.360;2022-09-06T06:42:40;95938.50;;;22.47;70.84
3096;BME280;1558;42.700;23.360;2022-09-06T06:45:10;95923.19;;;22.42;70.67
3096;BME280;1558;42.700;23.360;2022-09-06T06:47:38;95933.81;;;22.37;71.47
3096;BME280;1558;42.700;23.360;2022-09-06T06:50:06;95810.81;;;21.74;70.37
3096;BME280;1558;42.700;23.360;2022-09-06T06:52:34;95938.13;;;22.48;71.29
3096;BME280;1558;42.700;23.360;2022-09-06T06:55:03;95925.56;;;22.93;69.17
3096;BME280;1558;42.700;23.360;2022-09-06T06:57:32;95943.97;;;23.31;67.97
3096;BME280;1558;42.700;23.360;2022-09-06T07:00:00;95942.50;;;22.92;68.05
3096;BME280;1558;42.700;23.360;2022-09-06T07:02:31;95920.03;;;22.97;68.43
3096;BME280;1558;42.700;23.360;2022-09-06T07:04:59;95941.25;;;23.24;66.61
3096;BME280;1558;42.700;23.360;2022-09-06T07:07:27;95938.16;;;22.66;68.08
3096;BME280;1558;42.700;23.360;2022-09-06T07:09:56;95917.28;;;23.07;66.61
3096;BME280;1558;42.700;23.360;2022-09-06T07:12:44;95941.25;;;23.21;67.51
3096;BME280;1558;42.700;23.360;2022-09-06T07:15:12;95946.34;;;23.29;66.50
3096;BME280;1558;42.700;23.360;2022-09-06T07:17:41;95937.94;;;23.79;65.26
3096;BME280;1558;42.700;23.360;2022-09-06T07:20:09;95940.81;;;24.30;63.71
3096;BME280;1558;42.700;23.360;2022-09-06T07:22:42;95942.03;;;23.32;64.88
3096;BME280;1558;42.700;23.360;2022-09-06T07:25:11;95909.75;;;23.29;66.29
3096;BME280;1558;42.700;23.360;2022-09-06T07:27:46;95946.16;;;23.86;66.00
3096;BME280;1558;42.700;23.360;2022-09-06T07:30:16;95945.53;;;24.33;64.43
3096;BME280;1558;42.700;23.360;2022-09-06T07:32:46;95950.63;;;24.35;63.63
3096;BME280;1558;42.700;23.360;2022-09-06T07:35:14;95950.84;;;23.96;63.62
3096;BME280;1558;42.700;23.360;2022-09-06T07:37:42;95944.28;;;24.96;62.44
3096;BME280;1558;42.700;23.360;2022-09-06T07:40:17;95935.84;;;25.51;59.28
3096;BME280;1558;42.700;23.360;2022-09-06T07:42:45;95948.94;;;25.81;58.51
3096;BME280;1558;42.700;23.360;2022-09-06T07:45:13;95919.34;;;25.44;57.04
3096;BME280;1558;42.700;23.360;2022-09-06T07:47:41;95938.84;;;25.67;57.30
3096;BME280;1558;42.700;23.360;2022-09-06T07:50:27;95946.44;;;25.60;57.17
3096;BME280;1558;42.700;23.360;2022-09-06T07:53:14;95941.72;;;25.57;57.50
3096;BME280;1558;42.700;23.360;2022-09-06T07:55:55;95935.38;;;25.19;57.63
3096;BME280;1558;42.700;23.360;2022-09-06T07:58:23;95943.59;;;24.85;59.21
3096;BME280;1558;42.700;23.360;2022-09-06T08:00:51;95946.66;;;24.39;60.64
3096;BME280;1558;42.700;23.360;2022-09-06T08:03:20;95935.66;;;24.91;60.49
3096;BME280;1558;42.700;23.360;2022-09-06T08:05:50;95915.97;;;24.88;58.82
3096;BME280;1558;42.700;23.360;2022-09-06T08:08:33;95931.56;;;25.06;60.35
3096;BME280;1558;42.700;23.360;2022-09-06T08:11:22;95938.38;;;26.02;58.14
3096;BME280;1558;42.700;23.360;2022-09-06T08:13:51;95927.44;;;25.24;59.07
3096;BME280;1558;42.700;23.360;2022-09-06T08:16:24;95933.47;;;25.53;57.90
3096;BME280;1558;42.700;23.360;2022-09-06T08:18:54;95926.28;;;25.59;57.65
3096;BME280;1558;42.700;23.360;2022-09-06T08:21:26;95933.09;;;25.51;57.93
3096;BME280;1558;42.700;23.360;2022-09-06T08:23:57;95934.22;;;25.57;58.47
3096;BME280;1558;42.700;23.360;2022-09-06T08:26:26;95930.97;;;26.26;57.33
3096;BME280;1558;42.700;23.360;2022-09-06T08:28:55;95771.06;;;25.34;55.92
3096;BME280;1558;42.700;23.360;2022-09-06T08:31:24;95923.75;;;26.85;54.65
3096;BME280;1558;42.700;23.360;2022-09-06T08:33:52;95914.16;;;26.67;52.98
3096;BME280;1558;42.700;23.360;2022-09-06T08:36:21;95924.22;;;26.27;55.01
3096;BME280;1558;42.700;23.360;2022-09-06T08:38:54;95888.66;;;26.29;54.39
3096;BME280;1558;42.700;23.360;2022-09-06T08:41:26;95923.50;;;26.50;54.72
3096;BME280;1558;42.700;23.360;2022-09-06T08:43:57;95914.88;;;26.71;54.03
3096;BME280;1558;42.700;23.360;2022-09-06T08:46:52;95893.91;;;26.20;55.35
3096;BME280;1558;42.700;23.360;2022-09-06T08:49:23;95906.19;;;26.46;53.42
3096;BME280;1558;42.700;23.360;2022-09-06T08:52:03;95893.53;;;26.68;52.96
3096;BME280;1558;42.700;23.360;2022-09-06T08:54:37;95889.34;;;26.60;51.85
3096;BME280;1558;42.700;23.360;2022-09-06T08:57:12;95893.09;;;27.98;49.85
3096;BME280;1558;42.700;23.360;2022-09-06T08:59:41;95889.06;;;27.63;49.85
3096;BME280;1558;42.700;23.360;2022-09-06T09:02:11;95859.53;;;27.33;51.07
3096;BME280;1558;42.700;23.360;2022-09-06T09:04:43;95882.66;;;27.46;50.82
3096;BME280;1558;42.700;23.360;2022-09-06T09:07:23;95878.31;;;27.85;48.97
3096;BME280;1558;42.700;23.360;2022-09-06T09:09:58;95859.34;;;27.01;51.11
3096;BME280;1558;42.700;23.360;2022-09-06T09:12:31;95870.44;;;27.44;50.71
3096;BME280;1558;42.700;23.360;2022-09-06T09:15:05;95868.38;;;27.68;50.12
3096;BME280;1558;42.700;23.360;2022-09-06T09:17:35;95864.09;;;28.02;49.44
3096;BME280;1558;42.700;23.360;2022-09-06T09:20:04;95868.13;;;28.50;48.19
3096;BME280;1558;42.700;23.360;2022-09-06T09:22:34;95819.19;;;28.72;46.08
3096;BME280;1558;42.700;23.360;2022-09-06T09:25:06;95854.50;;;28.88;45.18
3096;BME280;1558;42.700;23.360;2022-09-06T09:27:35;95840.69;;;28.19;46.55
3096;BME280;1558;42.700;23.360;2022-09-06T09:30:05;95833.94;;;28.21;46.86
3096;BME280;1558;42.700;23.360;2022-09-06T09:32:53;95840.09;;;28.44;46.52
3096;BME280;1558;42.700;23.360;2022-09-06T09:35:28;95831.56;;;27.47;47.41
3096;BME280;1558;42.700;23.360;2022-09-06T09:38:00;95840.59;;;28.23;45.26
3096;BME280;1558;42.700;23.360;2022-09-06T09:40:38;95838.56;;;28.59;44.71
3096;BME280;1558;42.700;23.360;2022-09-06T09:43:13;95802.38;;;28.92;44.53
3096;BME280;1558;42.700;23.360;2022-09-06T09:45:42;95825.66;;;29.26;43.84
3096;BME280;1558;42.700;23.360;2022-09-06T09:48:24;95792.59;;;29.44;43.26
3096;BME280;1558;42.700;23.360;2022-09-06T09:50:54;95762.72;;;28.91;44.02
3096;BME280;1558;42.700;23.360;2022-09-06T09:53:23;95828.81;;;28.67;43.75
3096;BME280;1558;42.700;23.360;2022-09-06T09:55:57;95831.91;;;29.02;44.51
3096;BME280;1558;42.700;23.360;2022-09-06T09:58:31;95817.16;;;29.17;43.86
3096;BME280;1558;42.700;23.360;2022-09-06T10:01:11;95814.59;;;28.49;44.72
3096;BME280;1558;42.700;23.360;2022-09-06T10:03:42;95759.25;;;28.26;44.65
3096;BME280;1558;42.700;23.360;2022-09-06T10:06:31;95809.56;;;28.12;44.09
3096;BME280;1558;42.700;23.360;2022-09-06T10:09:21;95807.03;;;29.11;41.70
3096;BME280;1558;42.700;23.360;2022-09-06T10:11:57;95797.03;;;29.13;42.26
3096;BME280;1558;42.700;23.360;2022-09-06T10:14:27;95818.06;;;29.97;40.70
3096;BME280;1558;42.700;23.360;2022-09-06T10:16:57;95778.66;;;30.24;39.35
3096;BME280;1558;42.700;23.360;2022-09-06T10:19:40;95804.47;;;30.24;39.21
3096;BME280;1558;42.700;23.360;2022-09-06T10:22:17;95805.81;;;30.07;40.16
3096;BME280;1558;42.700;23.360;2022-09-06T10:25:01;95800.34;;;30.03;40.45
3096;BME280;1558;42.700;23.360;2022-09-06T10:27:34;95786.88;;;30.27;39.55
3096;BME280;1558;42.700;23.360;2022-09-06T10:30:11;95799.00;;;29.95;38.25
3096;BME280;1558;42.700;23.360;2022-09-06T10:32:40;95786.41;;;29.66;38.44
3096;BME280;1558;42.700;23.360;2022-09-06T10:35:20;95769.03;;;29.49;40.26
3096;BME280;1558;42.700;23.360;2022-09-06T10:38:02;95783.25;;;29.51;40.05
3096;BME280;1558;42.700;23.360;2022-09-06T10:40:40;95783.38;;;29.60;40.37
3096;BME280;1558;42.700;23.360;2022-09-06T10:43:16;95775.16;;;29.69;40.14
3096;BME280;1558;42.700;23.360;2022-09-06T10:45:52;95725.19;;;29.53;38.57
3096;BME280;1558;42.700;23.360;2022-09-06T10:48:25;95758.56;;;29.53;35.82
3096;BME280;1558;42.700;23.360;2022-09-06T10:50:59;95775.84;;;30.49;36.76
3096;BME280;1558;42.700;23.360;2022-09-06T10:53:39;95735.63;;;31.27;33.39
3096;BME280;1558;42.700;23.360;2022-09-06T10:56:12;95774.94;;;31.20;33.52
3096;BME280;1558;42.700;23.360;2022-09-06T10:58:49;95772.25;;;30.61;33.55
3096;BME280;1558;42.700;23.360;2022-09-06T11:01:41;95770.38;;;30.33;33.62
3096;BME280;1558;42.700;23.360;2022-09-06T11:04:20;95765.16;;;30.35;33.26
3096;BME280;1558;42.700;23.360;2022-09-06T11:06:53;95765.91;;;30.48;34.59
3096;BME280;1558;42.700;23.360;2022-09-06T11:09:28;95754.03;;;31.25;33.06
3096;BME280;1558;42.700;23.360;2022-09-06T11:12:05;95767.75;;;30.76;33.89
3096;BME280;1558;42.700;23.360;2022-09-06T11:14:37;95749.03;;;30.98;33.39
3096;BME280;1558;42.700;23.360;2022-09-06T11:17:08;95758.47;;;30.20;33.00
3096;BME280;1558;42.700;23.360;2022-09-06T11:19:43;95768.25;;;30.96;33.66
3096;BME280;1558;42.700;23.360;2022-09-06T11:22:37;95757.91;;;31.71;31.44
3096;BME280;1558;42.700;23.360;2022-09-06T11:25:30;95740.50;;;31.97;31.50
3096;BME280;1558;42.700;23.360;2022-09-06T11:28:07;95750.94;;;31.75;31.36
3096;BME280;1558;42.700;23.360;2022-09-06T11:30:42;95752.00;;;31.69;30.53
3096;BME280;1558;42.700;23.360;2022-09-06T11:33:18;95759.00;;;32.04;30.06
3096;BME280;1558;42.700;23.360;2022-09-06T11:35:50;95754.06;;;31.77;29.96
3096;BME280;1558;42.700;23.360;2022-09-06T11:38:23;95737.56;;;31.61;29.37
3096;BME280;1558;42.700;23.360;2022-09-06T11:40:57;95721.66;;;30.84;31.49
3096;BME280;1558;42.700;23.360;2022-09-06T11:43:45;95743.47;;;32.03;30.47
3096;BME280;1558;42.700;23.360;2022-09-06T11:49:32;95736.50;;;32.65;30.74
3096;BME280;1558;42.700;23.360;2022-09-06T11:52:00;95711.81;;;32.91;30.82
3096;BME280;1558;42.700;23.360;2022-09-06T11:54:39;95724.41;;;32.87;31.42
3096;BME280;1558;42.700;23.360;2022-09-06T11:57:13;95721.59;;;32.87;31.29
3096;BME280;1558;42.700;23.360;2022-09-06T11:59:57;95732.47;;;32.66;31.31
3096;BME280;1558;42.700;23.360;2022-09-06T12:02:35;95725.94;;;32.69;31.63
3096;BME280;1558;42.700;23.360;2022-09-06T12:05:22;95713.84;;;32.54;30.83
3096;BME280;1558;42.700;23.360;2022-09-06T12:11:21;95716.31;;;30.55;35.09
3096;BME280;1558;42.700;23.360;2022-09-06T12:13:59;95713.19;;;29.94;35.38
3096;BME280;1558;42.700;23.360;2022-09-06T12:19:50;95683.91;;;30.49;35.14
3096;BME280;1558;42.700;23.360;2022-09-06T12:22:50;95694.94;;;30.52;35.46
3096;BME280;1558;42.700;23.360;2022-09-06T12:25:52;95693.16;;;29.99;35.58
3096;BME280;1558;42.700;23.360;2022-09-06T12:28:33;95699.94;;;29.73;35.20
3096;BME280;1558;42.700;23.360;2022-09-06T12:31:21;95697.84;;;29.64;35.87
3096;BME280;1558;42.700;23.360;2022-09-06T12:33:51;95697.84;;;29.77;35.49
3096;BME280;1558;42.700;23.360;2022-09-06T12:36:22;95704.97;;;29.90;35.68
3096;BME280;1558;42.700;23.360;2022-09-06T12:38:58;95697.47;;;28.96;36.79
3096;BME280;1558;42.700;23.360;2022-09-06T12:41:28;95696.16;;;29.54;36.97
3096;BME280;1558;42.700;23.360;2022-09-06T12:43:58;95694.81;;;29.96;35.13
3096;BME280;1558;42.700;23.360;2022-09-06T12:46:28;95701.94;;;29.47;36.10
3096;BME280;1558;42.700;23.360;2022-09-06T12:49:02;95689.97;;;29.09;36.01
3096;BME280;1558;42.700;23.360;2022-09-06T12:51:32;95660.72;;;29.04;36.73
3096;BME280;1558;42.700;23.360;2022-09-06T12:54:03;95680.13;;;29.58;36.62
3096;BME280;1558;42.700;23.360;2022-09-06T12:56:33;95682.72;;;29.78;36.01
3096;BME280;1558;42.700;23.360;2022-09-06T12:59:14;95677.69;;;29.35;37.29
3096;BME280;1558;42.700;23.360;2022-09-06T13:01:52;95586.88;;;28.37;38.57
3096;BME280;1558;42.700;23.360;2022-09-06T13:04:27;95660.50;;;28.41;38.82
3096;BME280;1558;42.700;23.360;2022-09-06T13:07:00;95669.56;;;28.29;39.65
3096;BME280;1558;42.700;23.360;2022-09-06T13:09:32;95690.59;;;28.14;40.17
3096;BME280;1558;42.700;23.360;2022-09-06T13:12:04;95675.47;;;27.99;39.96
3096;BME280;1558;42.700;23.360;2022-09-06T13:14:33;95648.78;;;27.40;39.99
3096;BME280;1558;42.700;23.360;2022-09-06T13:17:02;95667.25;;;27.63;39.67
3096;BME280;1558;42.700;23.360;2022-09-06T13:19:32;95668.28;;;27.85;40.48
3096;BME280;1558;42.700;23.360;2022-09-06T13:22:02;95671.47;;;27.51;41.01
3096;BME280;1558;42.700;23.360;2022-09-06T13:24:43;95672.25;;;27.16;41.39
3096;BME280;1558;42.700;23.360;2022-09-06T13:27:24;95670.16;;;26.84;41.34
3096;BME280;1558;42.700;23.360;2022-09-06T13:29:56;95664.53;;;26.29;41.48
3096;BME280;1558;42.700;23.360;2022-09-06T13:32:25;95666.38;;;26.36;42.21
3096;BME280;1558;42.700;23.360;2022-09-06T13:34:54;95662.41;;;26.56;42.21
3096;BME280;1558;42.700;23.360;2022-09-06T13:37:25;95674.19;;;26.60;42.63
3096;BME280;1558;42.700;23.360;2022-09-06T13:39:55;95666.25;;;26.43;41.28
3096;BME280;1558;42.700;23.360;2022-09-06T13:42:27;95677.94;;;26.31;42.02
3096;BME280;1558;42.700;23.360;2022-09-06T13:44:56;95648.47;;;26.20;42.68
3096;BME280;1558;42.700;23.360;2022-09-06T13:47:28;95671.50;;;26.37;42.12